createdAt,value
2018-06-25T00:02:03.150Z,68.80
2018-06-25T00:04:31.868Z,70.00
2018-06-25T00:07:00.426Z,69.30
2018-06-25T00:09:29.090Z,69.90
2018-06-25T00:11:57.789Z,70.60
2018-06-25T00:14:26.489Z,70.70
2018-06-25T00:16:55.023Z,69.70
2018-06-25T00:21:51.948Z,70.00
2018-06-25T00:24:20.577Z,70.00
2018-06-25T00:26:49.182Z,69.80
2018-06-25T00:29:17.744Z,69.90
2018-06-25T00:31:46.428Z,70.00
2018-06-25T00:34:15.027Z,69.90
2018-06-25T00:36:43.560Z,70.10
2018-06-25T00:39:12.905Z,70.30
2018-06-25T00:41:41.465Z,70.50
2018-06-25T00:44:10.125Z,70.80
2018-06-25T00:46:38.797Z,71.40
2018-06-25T00:49:08.578Z,70.50
2018-06-25T00:51:37.131Z,70.30
2018-06-25T00:54:06.211Z,70.30
2018-06-25T00:56:34.812Z,70.60
2018-06-25T00:59:14.782Z,70.90
2018-06-25T01:01:43.376Z,71.20
2018-06-25T01:04:11.961Z,71.20
2018-06-25T01:06:40.522Z,71.00
2018-06-25T01:09:10.914Z,71.40
2018-06-25T01:11:39.573Z,72.00
2018-06-25T01:14:08.170Z,72.20
2018-06-25T01:16:36.738Z,72.30
2018-06-25T01:19:05.541Z,72.50
2018-06-25T01:21:34.081Z,72.60
2018-06-25T01:24:03.078Z,73.70
2018-06-25T01:26:31.821Z,72.90
2018-06-25T01:29:00.407Z,73.00
2018-06-25T01:31:29.002Z,72.80
2018-06-25T01:33:57.631Z,72.00
2018-06-25T01:36:26.227Z,72.20
2018-06-25T01:38:54.869Z,72.10
2018-06-25T01:41:23.472Z,72.30
2018-06-25T01:43:52.103Z,72.70
2018-06-25T01:46:20.653Z,72.80
2018-06-25T01:48:49.240Z,73.00
2018-06-25T01:51:17.852Z,73.10
2018-06-25T01:53:46.428Z,72.90
2018-06-25T01:56:15.126Z,73.70
2018-06-25T01:58:43.730Z,73.70
2018-06-25T02:01:12.330Z,74.10
2018-06-25T02:03:40.919Z,74.20
2018-06-25T02:06:09.559Z,74.20
2018-06-25T02:08:38.157Z,74.70
2018-06-25T02:11:06.973Z,74.30
2018-06-25T02:13:35.715Z,74.40
2018-06-25T02:16:04.470Z,74.70
2018-06-25T02:18:33.134Z,74.70
2018-06-25T02:21:01.691Z,74.70
2018-06-25T02:23:30.272Z,75.10
2018-06-25T02:25:58.957Z,75.70
2018-06-25T02:28:27.635Z,78.00
2018-06-25T02:30:56.295Z,79.00
2018-06-25T02:33:24.935Z,79.60
2018-06-25T02:35:53.554Z,80.40
2018-06-25T02:38:22.093Z,81.20
2018-06-25T02:40:50.827Z,81.90
2018-06-25T02:43:19.376Z,82.20
2018-06-25T02:45:48.044Z,83.40
2018-06-25T02:48:16.661Z,84.40
2018-06-25T02:50:45.296Z,84.50
2018-06-25T02:53:13.916Z,83.60
2018-06-25T02:55:42.502Z,84.90
2018-06-25T02:58:11.177Z,85.50
2018-06-25T03:00:39.815Z,86.00
2018-06-25T03:03:08.379Z,85.70
2018-06-25T03:05:36.970Z,85.50
2018-06-25T03:08:05.835Z,86.10
2018-06-25T03:10:34.433Z,87.10
2018-06-25T03:13:03.051Z,88.10
2018-06-25T03:15:31.658Z,87.70
2018-06-25T03:18:00.291Z,87.00
2018-06-25T03:20:28.908Z,86.50
2018-06-25T03:22:57.522Z,87.00
2018-06-25T03:25:26.206Z,88.00
2018-06-25T03:27:54.845Z,88.70
2018-06-25T03:30:23.521Z,90.10
2018-06-25T03:32:52.161Z,90.00
2018-06-25T03:35:20.870Z,90.20
2018-06-25T03:37:49.468Z,90.20
2018-06-25T03:40:18.200Z,90.00
2018-06-25T03:42:47.071Z,90.10
2018-06-25T03:45:15.767Z,90.40
2018-06-25T03:47:44.336Z,90.70
2018-06-25T03:50:13.037Z,91.30
2018-06-25T03:52:41.624Z,91.70
2018-06-25T03:55:10.407Z,91.90
2018-06-25T03:57:39.053Z,92.20
2018-06-25T04:00:07.820Z,92.10
2018-06-25T04:02:36.321Z,91.80
2018-06-25T04:05:05.262Z,91.30
2018-06-25T04:07:33.925Z,90.80
2018-06-25T04:10:02.532Z,91.10
2018-06-25T04:12:31.126Z,91.10
2018-06-25T04:14:59.691Z,91.00
2018-06-25T04:17:28.258Z,91.10
2018-06-25T04:19:56.848Z,91.10
2018-06-25T04:22:25.471Z,91.30
2018-06-25T04:24:54.084Z,90.50
2018-06-25T04:27:22.874Z,89.60
2018-06-25T04:29:51.442Z,88.50
2018-06-25T04:32:20.086Z,88.30
2018-06-25T04:34:48.708Z,88.00
2018-06-25T04:37:17.282Z,87.50
2018-06-25T04:39:45.803Z,87.10
2018-06-25T04:42:14.418Z,86.70
2018-06-25T04:44:43.046Z,86.90
2018-06-25T04:47:11.670Z,87.00
2018-06-25T04:49:40.304Z,86.90
2018-06-25T04:52:08.927Z,87.20
2018-06-25T04:54:37.530Z,87.00
2018-06-25T04:57:06.143Z,85.60
2018-06-25T04:59:34.635Z,86.20
2018-06-25T05:02:03.327Z,87.60
2018-06-25T05:04:31.835Z,88.10
2018-06-25T05:07:00.496Z,87.30
2018-06-25T05:09:29.092Z,86.80
2018-06-25T05:11:57.713Z,87.40
2018-06-25T05:14:26.362Z,87.90
2018-06-25T05:16:55.053Z,88.00
2018-06-25T05:19:23.577Z,87.00
2018-06-25T05:21:52.188Z,86.00
2018-06-25T05:24:20.731Z,86.80
2018-06-25T05:26:49.385Z,85.40
2018-06-25T05:29:18.072Z,85.10
2018-06-25T05:31:46.593Z,83.80
2018-06-25T05:34:15.174Z,81.80
2018-06-25T05:36:43.782Z,81.60
2018-06-25T05:39:12.744Z,80.50
2018-06-25T05:41:42.206Z,80.00
2018-06-25T05:44:10.867Z,81.00
2018-06-25T05:46:39.590Z,78.60
2018-06-25T05:49:08.513Z,79.00
2018-06-25T05:51:37.066Z,79.90
2018-06-25T05:54:05.641Z,79.50
2018-06-25T05:56:34.246Z,79.20
2018-06-25T05:59:02.987Z,79.10
2018-06-25T06:01:31.527Z,79.20
2018-06-25T06:04:00.207Z,78.00
2018-06-25T06:06:28.842Z,78.50
2018-06-25T06:08:57.481Z,78.60
2018-06-25T06:11:26.139Z,78.40
2018-06-25T06:13:55.175Z,77.90
2018-06-25T06:16:23.856Z,78.20
2018-06-25T06:18:52.497Z,77.20
2018-06-25T06:21:21.105Z,77.10
2018-06-25T06:23:49.694Z,76.70
2018-06-25T06:26:18.376Z,76.30
2018-06-25T06:28:47.013Z,76.00
2018-06-25T06:31:15.620Z,75.00
2018-06-25T06:36:12.524Z,73.90
2018-06-25T06:38:41.175Z,73.80
2018-06-25T06:41:09.725Z,72.60
2018-06-25T06:43:38.253Z,72.30
2018-06-25T06:46:07.037Z,72.10
2018-06-25T06:48:35.634Z,71.90
2018-06-25T06:51:04.236Z,70.10
2018-06-25T06:53:32.811Z,70.20
2018-06-25T06:56:01.411Z,69.80
2018-06-25T06:58:30.031Z,70.20
2018-06-25T07:00:58.626Z,69.80
2018-06-25T07:03:27.298Z,70.90
2018-06-25T07:05:55.901Z,71.20
2018-06-25T07:08:24.543Z,71.80
2018-06-25T07:10:53.179Z,71.90
2018-06-25T07:13:21.890Z,72.30
2018-06-25T07:15:50.505Z,72.10
2018-06-25T07:18:19.165Z,72.00
2018-06-25T07:20:47.837Z,71.80
2018-06-25T07:23:16.569Z,71.20
2018-06-25T07:25:45.179Z,72.30
2018-06-25T07:28:13.817Z,71.60
2018-06-25T07:30:42.444Z,71.20
2018-06-25T07:33:11.082Z,71.60
2018-06-25T07:35:39.684Z,72.20
2018-06-25T07:38:08.340Z,72.80
2018-06-25T07:40:36.887Z,71.80
2018-06-25T07:43:06.247Z,71.20
2018-06-25T07:45:34.800Z,71.70
2018-06-25T07:48:03.506Z,71.50
2018-06-25T07:50:32.119Z,72.00
2018-06-25T07:53:00.745Z,71.40
2018-06-25T07:55:29.350Z,72.10
2018-06-25T07:57:57.963Z,72.40
2018-06-25T08:00:26.530Z,70.80
2018-06-25T08:02:55.189Z,71.10
2018-06-25T08:05:23.886Z,71.10
2018-06-25T08:07:52.545Z,71.50
2018-06-25T08:10:21.176Z,72.30
2018-06-25T08:12:49.829Z,71.60
2018-06-25T08:15:18.520Z,70.70
2018-06-25T08:17:47.161Z,71.60
2018-06-25T08:20:15.849Z,72.60
2018-06-25T08:22:44.552Z,72.20
2018-06-25T08:25:13.193Z,73.20
2018-06-25T08:27:41.769Z,74.00
2018-06-25T08:30:10.386Z,73.40
2018-06-25T08:32:39.034Z,73.50
2018-06-25T08:35:07.705Z,73.20
2018-06-25T08:37:36.431Z,72.40
2018-06-25T08:40:05.145Z,72.70
2018-06-25T08:42:33.724Z,72.20
2018-06-25T08:45:02.293Z,70.90
2018-06-25T08:47:30.843Z,71.60
2018-06-25T08:49:59.421Z,73.30
2018-06-25T08:52:28.090Z,72.40
2018-06-25T08:54:56.701Z,69.90
2018-06-25T08:57:25.241Z,68.80
2018-06-25T08:59:53.878Z,70.90
2018-06-25T09:02:22.444Z,69.20
2018-06-25T09:04:51.007Z,69.60
2018-06-25T09:07:19.635Z,69.30
2018-06-25T09:09:48.246Z,68.50
2018-06-25T09:12:16.891Z,68.00
2018-06-25T09:14:45.505Z,66.70
2018-06-25T09:17:14.127Z,66.40
2018-06-25T09:19:42.844Z,66.60
2018-06-25T09:22:11.413Z,67.10
2018-06-25T09:24:40.112Z,66.30
2018-06-25T09:27:08.708Z,65.80
2018-06-25T09:29:37.261Z,65.80
2018-06-25T09:32:05.856Z,66.00
2018-06-25T09:34:39.641Z,65.90
2018-06-25T09:37:08.239Z,66.70
2018-06-25T09:39:36.855Z,67.90
2018-06-25T09:42:05.523Z,67.80
2018-06-25T09:44:34.170Z,66.70
2018-06-25T09:47:02.825Z,66.90
2018-06-25T09:49:31.528Z,66.80
2018-06-25T09:52:00.054Z,66.40
2018-06-25T09:54:28.669Z,65.50
2018-06-25T09:56:57.226Z,65.30
2018-06-25T09:59:25.870Z,65.00
2018-06-25T10:01:54.462Z,65.10
2018-06-25T10:04:23.147Z,64.50
2018-06-25T10:06:51.635Z,64.20
2018-06-25T10:09:20.239Z,65.20
2018-06-25T10:11:48.830Z,65.60
2018-06-25T10:14:17.444Z,65.60
2018-06-25T10:16:46.014Z,66.10
2018-06-25T10:19:14.603Z,64.60
2018-06-25T10:21:43.179Z,61.70
2018-06-25T10:24:11.833Z,62.30
2018-06-25T10:26:40.423Z,61.60
2018-06-25T10:29:09.107Z,60.90
2018-06-25T10:31:37.724Z,59.90
2018-06-25T10:34:06.324Z,59.00
2018-06-25T10:36:34.944Z,58.50
2018-06-25T10:39:03.658Z,58.60
2018-06-25T10:41:32.290Z,59.00
2018-06-25T10:44:00.963Z,58.50
2018-06-25T10:46:29.496Z,57.90
2018-06-25T10:48:58.142Z,58.80
2018-06-25T10:51:26.753Z,58.30
2018-06-25T10:53:55.354Z,57.70
2018-06-25T10:56:23.895Z,56.80
2018-06-25T10:58:52.545Z,56.30
2018-06-25T11:01:21.197Z,56.70
2018-06-25T11:03:49.866Z,56.30
2018-06-25T11:06:18.488Z,56.80
2018-06-25T11:08:47.069Z,57.90
2018-06-25T11:11:15.749Z,59.40
2018-06-25T11:13:44.357Z,59.60
2018-06-25T11:16:12.942Z,59.80
2018-06-25T11:18:41.583Z,60.20
2018-06-25T11:21:10.202Z,59.10
2018-06-25T11:23:38.862Z,59.10
2018-06-25T11:26:07.421Z,59.00
2018-06-25T11:28:35.952Z,58.10
2018-06-25T11:31:04.571Z,58.30
2018-06-25T11:33:33.124Z,58.60
2018-06-25T11:36:01.699Z,58.20
2018-06-25T11:38:30.320Z,56.50
2018-06-25T11:40:58.909Z,55.50
2018-06-25T11:43:27.637Z,55.90
2018-06-25T11:45:56.241Z,53.40
2018-06-25T11:48:24.763Z,53.60
2018-06-25T11:50:53.556Z,54.20
2018-06-25T11:53:22.121Z,54.20
2018-06-25T11:55:50.751Z,54.50
2018-06-25T11:58:19.359Z,54.80
2018-06-25T12:00:47.982Z,53.60
2018-06-25T12:03:16.880Z,52.90
2018-06-25T12:05:45.274Z,52.20
2018-06-25T12:08:13.873Z,51.80
2018-06-25T12:10:42.584Z,51.90
2018-06-25T12:13:11.079Z,52.80
2018-06-25T12:15:39.598Z,53.00
2018-06-25T12:18:08.154Z,52.60
2018-06-25T12:20:36.890Z,51.70
2018-06-25T12:23:05.807Z,52.30
2018-06-25T12:25:34.295Z,51.40
2018-06-25T12:28:02.865Z,49.40
2018-06-25T12:30:31.453Z,49.50
2018-06-25T12:33:00.069Z,50.30
2018-06-25T12:35:28.689Z,50.50
2018-06-25T12:37:57.271Z,50.10
2018-06-25T12:40:25.925Z,50.80
2018-06-25T12:42:54.498Z,50.40
2018-06-25T12:45:23.132Z,50.00
2018-06-25T12:47:51.661Z,48.60
2018-06-25T12:50:20.277Z,48.40
2018-06-25T12:52:48.873Z,49.50
2018-06-25T12:55:17.519Z,51.40
2018-06-25T12:57:46.069Z,52.20
2018-06-25T13:00:14.848Z,52.80
2018-06-25T13:02:43.403Z,53.00
2018-06-25T13:05:12.139Z,51.00
2018-06-25T13:07:40.871Z,50.00
2018-06-25T13:10:09.475Z,50.90
2018-06-25T13:12:38.050Z,48.70
2018-06-25T13:15:06.659Z,50.10
2018-06-25T13:17:35.161Z,49.10
2018-06-25T13:20:03.977Z,49.70
2018-06-25T13:22:32.622Z,48.40
2018-06-25T13:25:01.278Z,48.40
2018-06-25T13:27:29.951Z,47.50
2018-06-25T13:29:58.568Z,46.60
2018-06-25T13:32:27.260Z,47.10
2018-06-25T13:34:55.958Z,47.30
2018-06-25T13:37:24.677Z,48.80
2018-06-25T13:39:53.302Z,48.90
2018-06-25T13:42:21.981Z,47.60
2018-06-25T13:44:50.603Z,46.70
2018-06-25T13:47:19.344Z,46.90
2018-06-25T13:49:47.954Z,46.50
2018-06-25T13:52:16.564Z,46.90
2018-06-25T13:54:45.119Z,47.80
2018-06-25T13:57:13.731Z,46.20
2018-06-25T13:59:42.362Z,47.00
2018-06-25T14:02:11.008Z,46.20
2018-06-25T14:04:39.610Z,48.10
2018-06-25T14:07:08.250Z,49.10
2018-06-25T14:09:36.912Z,49.40
2018-06-25T14:12:05.620Z,49.70
2018-06-25T14:14:34.241Z,50.70
2018-06-25T14:17:02.930Z,50.30
2018-06-25T14:19:31.529Z,48.70
2018-06-25T14:22:00.189Z,48.00
2018-06-25T14:24:34.242Z,48.30
2018-06-25T14:27:08.105Z,48.60
2018-06-25T14:29:36.701Z,49.50
2018-06-25T14:32:10.516Z,48.90
2018-06-25T14:34:39.779Z,49.50
2018-06-25T14:37:10.143Z,48.40
2018-06-25T14:39:38.745Z,47.70
2018-06-25T14:42:07.926Z,46.40
2018-06-25T14:47:04.807Z,45.40
2018-06-25T14:49:34.233Z,45.10
2018-06-25T14:52:02.812Z,46.00
2018-06-25T14:54:31.483Z,46.90
2018-06-25T14:57:00.147Z,47.20
2018-06-25T14:59:28.822Z,45.30
2018-06-25T15:01:57.476Z,46.30
2018-06-25T15:04:26.166Z,46.20
2018-06-25T15:06:54.882Z,47.60
2018-06-25T15:09:23.541Z,47.10
2018-06-25T15:11:52.111Z,47.80
2018-06-25T15:14:20.739Z,48.50
2018-06-25T15:16:49.396Z,49.10
2018-06-25T15:19:17.974Z,48.70
2018-06-25T15:21:46.644Z,48.00
2018-06-25T15:24:18.230Z,47.60
2018-06-25T15:26:47.003Z,47.00
2018-06-25T15:29:15.693Z,46.70
2018-06-25T15:31:44.464Z,44.90
2018-06-25T15:34:13.097Z,45.70
2018-06-25T15:36:41.769Z,46.00
2018-06-25T15:39:10.947Z,45.50
2018-06-25T15:41:40.098Z,45.20
2018-06-25T15:44:08.719Z,45.20
2018-06-25T15:46:37.395Z,44.00
2018-06-25T15:49:05.966Z,44.70
2018-06-25T15:51:34.574Z,44.40
2018-06-25T15:54:03.213Z,45.50
2018-06-25T15:56:31.742Z,45.30
2018-06-25T15:59:00.599Z,44.80
2018-06-25T16:01:29.272Z,44.80
2018-06-25T16:03:57.898Z,46.20
2018-06-25T16:06:26.564Z,47.00
2018-06-25T16:08:55.244Z,47.10
2018-06-25T16:11:23.775Z,46.80
2018-06-25T16:13:53.479Z,47.30
2018-06-25T16:16:22.075Z,46.80
2018-06-25T16:18:50.761Z,47.00
2018-06-25T16:21:19.342Z,45.20
2018-06-25T16:23:48.020Z,44.60
2018-06-25T16:26:16.595Z,43.10
2018-06-25T16:28:45.219Z,43.10
2018-06-25T16:31:13.952Z,43.90
2018-06-25T16:33:42.634Z,44.90
2018-06-25T16:36:11.236Z,45.90
2018-06-25T16:38:39.938Z,45.60
2018-06-25T16:41:08.666Z,44.80
2018-06-25T16:43:37.245Z,43.10
2018-06-25T16:46:06.890Z,43.30
2018-06-25T16:48:35.469Z,42.60
2018-06-25T16:51:04.343Z,40.70
2018-06-25T16:53:32.858Z,39.40
2018-06-25T16:56:01.468Z,38.10
2018-06-25T16:58:30.193Z,37.60
2018-06-25T17:00:58.807Z,38.10
2018-06-25T17:03:27.424Z,37.70
2018-06-25T17:05:56.026Z,38.00
2018-06-25T17:08:24.643Z,38.60
2018-06-25T17:10:53.407Z,37.80
2018-06-25T17:13:23.058Z,38.10
2018-06-25T17:15:51.802Z,37.80
2018-06-25T17:18:20.400Z,37.40
2018-06-25T17:20:48.969Z,37.30
2018-06-25T17:23:18.630Z,38.10
2018-06-25T17:25:47.274Z,38.00
2018-06-25T17:28:22.925Z,37.90
2018-06-25T17:30:51.642Z,37.80
2018-06-25T17:33:20.291Z,37.60
2018-06-25T17:35:48.997Z,37.90
2018-06-25T17:38:17.609Z,38.30
2018-06-25T17:40:46.322Z,38.50
2018-06-25T17:45:43.339Z,40.60
2018-06-25T17:48:14.009Z,40.70
2018-06-25T17:50:42.570Z,41.70
2018-06-25T17:53:11.224Z,42.30
2018-06-25T17:55:39.978Z,42.70
2018-06-25T17:58:12.619Z,43.10
2018-06-25T18:00:44.528Z,42.70
2018-06-25T18:05:41.558Z,41.10
2018-06-25T18:08:10.286Z,40.00
2018-06-25T18:10:45.065Z,39.60
2018-06-25T18:13:14.783Z,38.90
2018-06-25T18:15:43.482Z,39.20
2018-06-25T18:18:13.208Z,39.30
2018-06-25T18:23:16.606Z,39.10
2018-06-25T18:25:48.398Z,40.00
2018-06-25T18:28:17.177Z,40.60
2018-06-25T18:30:45.747Z,42.00
2018-06-25T18:33:14.359Z,42.90
2018-06-25T18:35:44.033Z,44.00
2018-06-25T18:38:12.732Z,45.20
2018-06-25T18:40:41.351Z,45.80
2018-06-25T18:43:10.157Z,46.70
2018-06-25T18:45:38.682Z,47.20
2018-06-25T18:48:07.371Z,48.00
2018-06-25T18:50:35.948Z,48.60
2018-06-25T18:53:04.692Z,49.10
2018-06-25T18:55:33.399Z,49.70
2018-06-25T18:58:02.048Z,50.20
2018-06-25T19:00:30.693Z,50.70
2018-06-25T19:02:59.413Z,51.20
2018-06-25T19:05:28.115Z,51.70
2018-06-25T19:07:57.767Z,52.20
2018-06-25T19:10:27.446Z,52.80
2018-06-25T19:12:56.046Z,53.20
2018-06-25T19:15:24.598Z,54.00
2018-06-25T19:17:53.403Z,54.20
2018-06-25T19:20:22.111Z,54.40
2018-06-25T19:22:50.761Z,55.10
2018-06-25T19:25:19.324Z,55.60
2018-06-25T19:27:47.892Z,56.50
2018-06-25T19:30:16.463Z,57.00
2018-06-25T19:32:45.008Z,57.90
2018-06-25T19:35:13.635Z,58.80
2018-06-25T19:37:42.302Z,59.50
2018-06-25T19:40:10.958Z,61.30
2018-06-25T19:42:41.625Z,62.90
2018-06-25T19:45:11.265Z,64.00
2018-06-25T19:47:39.801Z,66.20
2018-06-25T19:50:08.461Z,67.60
2018-06-25T19:52:40.227Z,69.80
2018-06-25T19:55:08.871Z,71.00
2018-06-25T19:57:37.474Z,71.90
2018-06-25T20:00:06.190Z,73.20
2018-06-25T20:02:34.829Z,74.40
2018-06-25T20:07:31.839Z,76.90
2018-06-25T20:10:00.443Z,78.50
2018-06-25T20:12:29.188Z,80.10
2018-06-25T20:14:57.759Z,81.80
2018-06-25T20:17:26.463Z,82.70
2018-06-25T20:19:55.242Z,84.40
2018-06-25T20:22:24.056Z,85.60
2018-06-25T20:24:52.582Z,86.40
2018-06-25T20:27:21.241Z,87.80
2018-06-25T20:29:49.877Z,88.00
2018-06-25T20:32:18.462Z,88.10
2018-06-25T20:34:47.194Z,89.10
2018-06-25T20:37:15.793Z,88.70
2018-06-25T20:39:44.419Z,89.50
2018-06-25T20:42:13.067Z,90.10
2018-06-25T20:44:41.702Z,90.60
2018-06-25T20:47:10.362Z,91.00
2018-06-25T20:49:39.015Z,91.50
2018-06-25T20:52:07.648Z,91.70
2018-06-25T20:54:36.243Z,92.00
2018-06-25T20:57:04.851Z,92.40
2018-06-25T20:59:33.483Z,92.80
2018-06-25T21:02:02.194Z,93.10
2018-06-25T21:04:30.832Z,93.70
2018-06-25T21:06:59.414Z,94.00
2018-06-25T21:09:28.068Z,94.20
2018-06-25T21:11:56.693Z,94.40
2018-06-25T21:14:25.231Z,94.70
2018-06-25T21:16:53.891Z,95.10
2018-06-25T21:19:22.579Z,95.60
2018-06-25T21:21:51.257Z,95.70
2018-06-25T21:24:19.910Z,96.00
2018-06-25T21:26:48.528Z,96.20
2018-06-25T21:29:17.199Z,96.60
2018-06-25T21:31:45.817Z,96.70
2018-06-25T21:34:14.440Z,96.50
2018-06-25T21:36:43.096Z,96.40
2018-06-25T21:39:11.706Z,96.30
2018-06-25T21:41:40.406Z,96.20
2018-06-25T21:44:09.005Z,96.10
2018-06-25T21:46:37.622Z,96.00
2018-06-25T21:49:06.301Z,96.30
2018-06-25T21:51:34.896Z,96.40
2018-06-25T21:54:03.917Z,96.40
2018-06-25T21:56:32.556Z,96.30
2018-06-25T21:59:01.193Z,96.20
2018-06-25T22:01:29.870Z,96.10
2018-06-25T22:03:58.488Z,95.80
2018-06-25T22:06:27.073Z,96.20
2018-06-25T22:08:55.619Z,96.10
2018-06-25T22:11:24.288Z,96.20
2018-06-25T22:13:52.875Z,96.30
2018-06-25T22:16:21.541Z,96.50
2018-06-25T22:18:50.206Z,96.90
2018-06-25T22:21:18.777Z,97.10
2018-06-25T22:23:47.487Z,97.10
2018-06-25T22:26:16.141Z,97.30
2018-06-25T22:28:44.849Z,97.90
2018-06-25T22:31:13.530Z,97.80
2018-06-25T22:33:42.130Z,98.10
2018-06-25T22:36:10.837Z,98.70
2018-06-25T22:38:39.451Z,99.00
2018-06-25T22:41:08.129Z,98.90
2018-06-25T22:43:36.844Z,99.40
2018-06-25T22:46:05.748Z,99.60
2018-06-25T22:48:34.299Z,99.80
2018-06-25T22:51:02.895Z,99.90
2018-06-25T22:53:31.476Z,99.90
2018-06-25T22:58:28.461Z,99.90
2018-06-25T23:00:57.069Z,99.90
2018-06-25T23:03:25.667Z,99.90
2018-06-25T23:05:54.227Z,99.90
2018-06-25T23:08:22.843Z,99.90
2018-06-25T23:10:51.512Z,99.90
2018-06-25T23:13:20.194Z,99.90
2018-06-25T23:15:48.752Z,99.90
2018-06-25T23:18:17.381Z,99.90
2018-06-25T23:20:46.101Z,99.90
2018-06-25T23:23:14.673Z,99.90
2018-06-25T23:25:43.303Z,99.90
2018-06-25T23:28:12.030Z,99.90
2018-06-25T23:30:40.657Z,99.90
2018-06-25T23:33:09.230Z,99.90
2018-06-25T23:35:37.796Z,99.90
2018-06-25T23:38:06.464Z,99.90
2018-06-25T23:40:35.040Z,99.90
2018-06-25T23:43:03.676Z,99.90
2018-06-25T23:45:32.358Z,99.90
2018-06-25T23:48:00.910Z,99.90
2018-06-25T23:50:29.520Z,99.90
2018-06-25T23:52:58.198Z,99.90
2018-06-25T23:55:26.746Z,99.90
2018-06-25T23:57:55.468Z,99.90
